createdAt,value
2018-03-27T00:00:16.497Z,67.60
2018-03-27T00:01:15.156Z,70.60
2018-03-27T00:03:09.510Z,74.90
2018-03-27T00:04:08.083Z,77.70
2018-03-27T00:06:01.894Z,59.90
2018-03-27T00:07:01.084Z,54.60
2018-03-27T00:08:54.416Z,64.50
2018-03-27T00:09:55.371Z,63.10
2018-03-27T00:11:47.845Z,63.90
2018-03-27T00:12:46.926Z,70.00
2018-03-27T00:14:41.565Z,63.00
2018-03-27T00:15:40.708Z,59.10
2018-03-27T00:17:34.705Z,66.30
2018-03-27T00:18:35.213Z,66.80
2018-03-27T00:20:28.217Z,63.10
2018-03-27T00:21:27.982Z,69.80
2018-03-27T00:23:21.184Z,57.60
2018-03-27T00:24:20.257Z,61.90
2018-03-27T00:26:15.233Z,54.80
2018-03-27T00:27:13.399Z,57.40
2018-03-27T00:29:07.848Z,61.30
2018-03-27T00:30:08.084Z,70.50
2018-03-27T00:32:00.530Z,67.60
2018-03-27T00:32:59.081Z,61.40
2018-03-27T00:34:53.014Z,64.20
2018-03-27T00:35:52.137Z,68.80
2018-03-27T00:37:46.985Z,66.30
2018-03-27T00:38:46.604Z,68.70
2018-03-27T00:40:41.206Z,68.50
2018-03-27T00:41:39.723Z,65.60
2018-03-27T00:43:34.130Z,67.80
2018-03-27T00:44:32.466Z,67.70
2018-03-27T00:46:26.619Z,71.60
2018-03-27T00:47:25.746Z,75.90
2018-03-27T00:49:18.790Z,63.60
2018-03-27T00:50:19.255Z,62.80
2018-03-27T00:52:12.551Z,63.20
2018-03-27T00:53:12.019Z,63.00
2018-03-27T00:55:07.278Z,61.80
2018-03-27T00:56:06.677Z,62.10
2018-03-27T00:58:00.126Z,55.60
2018-03-27T00:58:58.871Z,54.60
2018-03-27T01:00:53.215Z,64.00
2018-03-27T01:01:53.603Z,60.80
2018-03-27T01:03:46.915Z,63.20
2018-03-27T01:04:46.861Z,67.10
2018-03-27T01:06:41.744Z,55.90
2018-03-27T01:07:41.160Z,59.90
2018-03-27T01:09:35.160Z,56.70
2018-03-27T01:10:35.114Z,60.50
2018-03-27T01:12:27.889Z,62.70
2018-03-27T01:13:26.990Z,57.30
2018-03-27T01:15:22.388Z,63.60
2018-03-27T01:16:21.474Z,62.80
2018-03-27T01:18:16.498Z,68.90
2018-03-27T01:19:14.550Z,72.70
2018-03-27T01:21:08.203Z,72.00
2018-03-27T01:22:07.401Z,75.30
2018-03-27T01:24:01.254Z,71.30
2018-03-27T01:25:01.066Z,73.70
2018-03-27T01:26:54.167Z,67.70
2018-03-27T01:27:53.210Z,69.40
2018-03-27T01:29:47.828Z,71.20
2018-03-27T01:30:46.884Z,70.10
2018-03-27T01:32:41.058Z,72.70
2018-03-27T01:33:39.177Z,70.00
2018-03-27T01:35:33.558Z,74.30
2018-03-27T01:36:32.134Z,73.70
2018-03-27T01:38:27.446Z,72.30
2018-03-27T01:39:26.782Z,67.10
2018-03-27T01:41:20.536Z,69.10
2018-03-27T01:42:20.397Z,69.60
2018-03-27T01:44:13.439Z,68.50
2018-03-27T01:45:12.565Z,68.70
2018-03-27T01:47:06.895Z,66.50
2018-03-27T01:48:05.486Z,67.20
2018-03-27T01:50:00.846Z,68.80
2018-03-27T01:51:01.047Z,67.40
2018-03-27T01:52:53.862Z,71.30
2018-03-27T01:53:53.157Z,67.70
2018-03-27T01:55:46.753Z,64.90
2018-03-27T01:56:46.026Z,65.80
2018-03-27T01:58:39.764Z,66.00
2018-03-27T01:59:39.673Z,66.60
2018-03-27T02:01:32.117Z,67.20
2018-03-27T02:02:32.008Z,70.80
2018-03-27T02:04:27.219Z,76.00
2018-03-27T02:05:26.895Z,64.10
2018-03-27T02:07:20.152Z,65.70
2018-03-27T02:08:19.496Z,69.00
2018-03-27T02:10:13.602Z,71.30
2018-03-27T02:11:12.332Z,77.60
2018-03-27T02:13:06.065Z,77.70
2018-03-27T02:14:05.320Z,74.50
2018-03-27T02:15:59.036Z,74.40
2018-03-27T02:16:58.341Z,77.40
2018-03-27T02:18:52.908Z,72.20
2018-03-27T02:19:51.081Z,73.90
2018-03-27T02:21:44.955Z,73.70
2018-03-27T02:22:44.100Z,77.10
2018-03-27T02:24:38.123Z,81.00
2018-03-27T02:25:36.971Z,73.90
2018-03-27T02:27:30.872Z,73.20
2018-03-27T02:28:30.060Z,72.30
2018-03-27T02:30:23.783Z,76.90
2018-03-27T02:31:23.007Z,76.40
2018-03-27T02:33:18.794Z,77.90
2018-03-27T02:34:18.707Z,79.40
2018-03-27T02:36:11.199Z,69.70
2018-03-27T02:37:10.314Z,66.40
2018-03-27T02:39:05.463Z,74.10
2018-03-27T02:40:03.907Z,68.60
2018-03-27T02:41:57.637Z,69.10
2018-03-27T02:42:56.850Z,66.80
2018-03-27T02:44:50.079Z,76.20
2018-03-27T02:45:49.638Z,70.80
2018-03-27T02:47:43.779Z,76.70
2018-03-27T02:48:43.791Z,73.10
2018-03-27T02:50:35.972Z,65.70
2018-03-27T02:51:35.790Z,69.70
2018-03-27T02:53:29.963Z,75.30
2018-03-27T02:54:28.618Z,76.40
2018-03-27T02:56:22.926Z,75.50
2018-03-27T02:57:21.581Z,68.90
2018-03-27T02:59:15.310Z,67.70
2018-03-27T03:00:14.364Z,68.50
2018-03-27T03:02:09.127Z,71.00
2018-03-27T03:03:07.680Z,73.60
2018-03-27T03:05:02.668Z,68.60
2018-03-27T03:06:02.513Z,68.80
2018-03-27T03:07:56.245Z,72.70
2018-03-27T03:08:55.271Z,72.20
2018-03-27T03:10:50.718Z,74.50
2018-03-27T03:11:51.194Z,71.70
2018-03-27T03:13:44.235Z,70.80
2018-03-27T03:14:43.560Z,70.70
2018-03-27T03:16:36.652Z,74.20
2018-03-27T03:17:35.889Z,67.10
2018-03-27T03:19:31.862Z,70.40
2018-03-27T03:20:31.074Z,67.70
2018-03-27T03:22:24.102Z,64.90
2018-03-27T03:23:23.201Z,64.40
2018-03-27T03:25:17.129Z,64.90
2018-03-27T03:26:16.994Z,68.00
2018-03-27T03:28:11.047Z,75.30
2018-03-27T03:29:10.259Z,70.70
2018-03-27T03:31:03.934Z,71.70
2018-03-27T03:32:03.740Z,78.00
2018-03-27T03:33:57.185Z,71.20
2018-03-27T03:34:56.090Z,73.20
2018-03-27T03:36:49.868Z,71.60
2018-03-27T03:37:50.314Z,69.90
2018-03-27T03:39:44.903Z,72.70
2018-03-27T03:40:43.619Z,71.70
2018-03-27T03:42:37.593Z,73.20
2018-03-27T03:43:36.476Z,74.00
2018-03-27T03:45:31.365Z,78.10
2018-03-27T03:46:29.631Z,76.80
2018-03-27T03:48:23.241Z,62.90
2018-03-27T03:49:22.298Z,65.80
2018-03-27T03:51:17.171Z,71.90
2018-03-27T03:52:15.592Z,69.20
2018-03-27T03:54:10.755Z,67.70
2018-03-27T03:55:09.938Z,69.40
2018-03-27T03:57:03.692Z,71.70
2018-03-27T03:58:02.731Z,71.70
2018-03-27T03:59:56.643Z,67.70
2018-03-27T04:00:56.556Z,67.20
2018-03-27T04:02:49.081Z,65.80
2018-03-27T04:03:48.625Z,65.70
2018-03-27T04:05:42.017Z,74.50
2018-03-27T04:06:41.938Z,71.30
2018-03-27T04:08:36.602Z,74.60
2018-03-27T04:09:35.419Z,72.70
2018-03-27T04:11:29.055Z,69.70
2018-03-27T04:12:29.682Z,70.20
2018-03-27T04:14:21.891Z,67.90
2018-03-27T04:15:21.073Z,65.60
2018-03-27T04:17:15.377Z,68.80
2018-03-27T04:18:14.439Z,76.40
2018-03-27T04:20:09.068Z,75.60
2018-03-27T04:21:07.961Z,76.30
2018-03-27T04:23:02.886Z,72.20
2018-03-27T04:24:00.920Z,72.00
2018-03-27T04:25:54.720Z,70.40
2018-03-27T04:26:55.133Z,73.40
2018-03-27T04:29:59.144Z,75.30
2018-03-27T04:31:53.336Z,72.30
2018-03-27T04:32:51.956Z,71.10
2018-03-27T04:34:47.849Z,68.50
2018-03-27T04:35:46.473Z,69.90
2018-03-27T04:37:40.771Z,72.80
2018-03-27T04:38:39.766Z,72.60
2018-03-27T04:40:34.445Z,70.70
2018-03-27T04:41:32.785Z,72.50
2018-03-27T04:43:26.716Z,66.60
2018-03-27T04:44:27.165Z,67.30
2018-03-27T04:45:25.879Z,68.50
2018-03-27T04:46:25.759Z,66.50
2018-03-27T04:47:27.449Z,69.80
2018-03-27T04:48:25.448Z,66.70
2018-03-27T04:49:25.391Z,73.00
2018-03-27T04:50:25.360Z,75.30
2018-03-27T04:51:25.298Z,73.80
2018-03-27T04:52:25.283Z,78.90
2018-03-27T04:53:25.236Z,73.40
2018-03-27T04:54:25.179Z,71.10
2018-03-27T04:55:25.187Z,70.50
2018-03-27T04:56:25.133Z,67.20
2018-03-27T04:57:25.115Z,69.00
2018-03-27T04:58:25.024Z,70.20
2018-03-27T04:59:24.996Z,72.20
2018-03-27T05:00:24.995Z,73.90
2018-03-27T05:01:24.940Z,76.40
2018-03-27T05:02:24.851Z,74.70
2018-03-27T05:03:24.796Z,68.50
2018-03-27T05:04:24.769Z,65.30
2018-03-27T05:05:24.755Z,73.30
2018-03-27T05:06:24.701Z,65.80
2018-03-27T05:07:24.662Z,76.00
2018-03-27T05:08:24.591Z,70.40
2018-03-27T05:09:24.537Z,68.40
2018-03-27T05:10:24.489Z,68.20
2018-03-27T05:11:24.495Z,65.50
2018-03-27T05:12:24.405Z,60.80
2018-03-27T05:13:24.386Z,70.00
2018-03-27T05:14:24.341Z,65.20
2018-03-27T05:15:24.292Z,68.50
2018-03-27T05:16:24.228Z,72.00
2018-03-27T05:17:24.202Z,72.60
2018-03-27T05:18:24.184Z,71.20
2018-03-27T05:19:24.137Z,68.70
2018-03-27T05:20:24.132Z,69.70
2018-03-27T05:21:24.041Z,69.90
2018-03-27T05:22:24.022Z,68.90
2018-03-27T05:23:23.943Z,71.10
2018-03-27T05:24:24.453Z,69.40
2018-03-27T05:25:23.851Z,72.30
2018-03-27T05:26:23.832Z,66.50
2018-03-27T05:27:23.755Z,58.30
2018-03-27T05:28:23.774Z,61.10
2018-03-27T05:29:23.675Z,64.90
2018-03-27T05:30:24.460Z,63.70
2018-03-27T05:31:23.694Z,61.10
2018-03-27T05:32:23.599Z,66.80
2018-03-27T05:33:23.549Z,67.30
2018-03-27T05:34:23.460Z,62.30
2018-03-27T05:35:23.502Z,67.70
2018-03-27T05:36:23.409Z,65.50
2018-03-27T05:37:23.354Z,63.30
2018-03-27T05:38:23.299Z,65.40
2018-03-27T05:39:23.964Z,64.10
2018-03-27T05:40:23.265Z,66.20
2018-03-27T05:41:23.239Z,66.90
2018-03-27T05:42:23.182Z,68.90
2018-03-27T05:43:23.081Z,67.70
2018-03-27T05:44:23.041Z,66.30
2018-03-27T05:45:23.160Z,68.20
2018-03-27T05:46:22.986Z,64.40
2018-03-27T05:47:22.908Z,67.70
2018-03-27T05:48:22.912Z,65.30
2018-03-27T05:49:22.886Z,65.80
2018-03-27T05:50:22.828Z,63.20
2018-03-27T05:51:22.794Z,61.00
2018-03-27T05:52:22.720Z,56.20
2018-03-27T05:53:22.707Z,56.00
2018-03-27T05:54:22.627Z,53.60
2018-03-27T05:55:22.610Z,61.10
2018-03-27T05:56:22.538Z,61.70
2018-03-27T05:57:22.500Z,67.00
2018-03-27T05:58:22.440Z,62.00
2018-03-27T05:59:22.408Z,62.20
2018-03-27T06:00:22.366Z,61.80
2018-03-27T06:01:22.333Z,58.30
2018-03-27T06:02:22.280Z,61.60
2018-03-27T06:03:22.252Z,59.60
2018-03-27T06:04:22.190Z,61.30
2018-03-27T06:05:22.183Z,57.70
2018-03-27T06:06:22.104Z,55.00
2018-03-27T06:07:22.075Z,56.50
2018-03-27T06:08:22.046Z,58.40
2018-03-27T06:09:21.986Z,61.60
2018-03-27T06:10:21.930Z,60.80
2018-03-27T06:11:21.917Z,59.00
2018-03-27T06:12:21.866Z,62.30
2018-03-27T06:13:21.823Z,58.60
2018-03-27T06:14:21.804Z,58.20
2018-03-27T06:15:21.740Z,59.70
2018-03-27T06:16:21.695Z,80.30
2018-03-27T06:17:21.667Z,114.60
2018-03-27T06:18:21.597Z,94.20
2018-03-27T06:19:21.553Z,59.80
2018-03-27T06:20:21.553Z,54.00
2018-03-27T06:21:21.474Z,56.50
2018-03-27T06:22:21.444Z,65.00
2018-03-27T06:23:21.413Z,61.70
2018-03-27T06:24:21.353Z,61.50
2018-03-27T06:25:21.302Z,65.10
2018-03-27T06:26:21.271Z,70.20
2018-03-27T06:27:21.272Z,58.70
2018-03-27T06:28:21.186Z,60.40
2018-03-27T06:29:21.177Z,58.90
2018-03-27T06:30:21.121Z,54.00
2018-03-27T06:31:21.069Z,52.10
2018-03-27T06:32:21.014Z,52.10
2018-03-27T06:33:20.983Z,51.60
2018-03-27T06:34:20.979Z,51.90
2018-03-27T06:35:20.901Z,51.50
2018-03-27T06:36:20.858Z,51.00
2018-03-27T06:37:20.827Z,52.00
2018-03-27T06:38:20.767Z,49.80
2018-03-27T06:39:20.778Z,48.80
2018-03-27T06:40:20.721Z,48.70
2018-03-27T06:41:20.649Z,47.90
2018-03-27T06:42:20.610Z,49.30
2018-03-27T06:43:20.574Z,48.40
2018-03-27T06:44:20.532Z,49.10
2018-03-27T06:45:20.498Z,47.00
2018-03-27T06:46:20.497Z,43.80
2018-03-27T06:47:20.428Z,46.30
2018-03-27T06:48:20.370Z,45.70
2018-03-27T06:49:20.337Z,45.20
2018-03-27T06:50:20.289Z,42.50
2018-03-27T06:51:20.255Z,44.60
2018-03-27T06:52:20.198Z,45.90
2018-03-27T06:53:20.147Z,43.40
2018-03-27T06:54:20.118Z,45.60
2018-03-27T06:55:20.089Z,46.40
2018-03-27T06:56:20.040Z,41.30
2018-03-27T06:57:20.006Z,44.30
2018-03-27T06:58:19.980Z,47.60
2018-03-27T06:59:19.974Z,43.40
2018-03-27T07:00:19.882Z,44.60
2018-03-27T07:01:20.475Z,45.20
2018-03-27T07:02:19.802Z,43.30
2018-03-27T07:03:19.796Z,42.30
2018-03-27T07:04:19.720Z,43.00
2018-03-27T07:05:19.846Z,40.40
2018-03-27T07:06:19.669Z,42.50
2018-03-27T07:07:19.603Z,41.00
2018-03-27T07:08:19.552Z,42.00
2018-03-27T07:09:19.533Z,40.50
2018-03-27T07:10:19.524Z,42.60
2018-03-27T07:11:19.574Z,43.20
2018-03-27T07:12:19.397Z,43.70
2018-03-27T07:13:19.377Z,41.40
2018-03-27T07:14:19.356Z,40.80
2018-03-27T07:15:19.301Z,45.20
2018-03-27T07:16:19.224Z,47.00
2018-03-27T07:17:19.222Z,47.80
2018-03-27T07:18:19.140Z,48.30
2018-03-27T07:19:19.140Z,48.30
2018-03-27T07:20:19.090Z,48.00
2018-03-27T07:21:19.075Z,45.80
2018-03-27T07:22:19.024Z,48.60
2018-03-27T07:23:18.966Z,45.00
2018-03-27T07:24:18.969Z,46.40
2018-03-27T07:25:18.897Z,47.00
2018-03-27T07:26:18.828Z,46.10
2018-03-27T07:27:18.804Z,47.80
2018-03-27T07:28:18.790Z,43.60
2018-03-27T07:29:18.715Z,47.40
2018-03-27T07:30:18.670Z,46.00
2018-03-27T07:31:18.664Z,44.10
2018-03-27T07:32:18.587Z,41.70
2018-03-27T07:33:18.575Z,42.40
2018-03-27T07:34:18.517Z,44.10
2018-03-27T07:35:18.479Z,42.40
2018-03-27T07:36:18.444Z,41.40
2018-03-27T07:37:18.391Z,45.70
2018-03-27T07:38:18.354Z,42.40
2018-03-27T07:39:18.375Z,41.50
2018-03-27T07:40:18.270Z,42.40
2018-03-27T07:41:18.213Z,45.30
2018-03-27T07:42:18.223Z,43.60
2018-03-27T07:43:18.186Z,43.60
2018-03-27T07:44:18.154Z,42.60
2018-03-27T07:45:18.068Z,42.30
2018-03-27T07:46:18.065Z,42.80
2018-03-27T07:47:17.981Z,45.10
2018-03-27T07:48:17.933Z,44.70
2018-03-27T07:49:18.482Z,43.90
2018-03-27T07:50:17.881Z,44.60
2018-03-27T07:51:17.840Z,45.10
2018-03-27T07:52:17.806Z,43.40
2018-03-27T07:53:17.778Z,44.10
2018-03-27T07:54:17.724Z,47.10
2018-03-27T07:55:17.708Z,43.50
2018-03-27T07:56:17.634Z,43.00
2018-03-27T07:57:17.601Z,40.60
2018-03-27T07:58:17.560Z,40.00
2018-03-27T07:59:17.505Z,41.60
2018-03-27T08:00:17.496Z,43.20
2018-03-27T08:01:17.476Z,43.40
2018-03-27T08:02:17.410Z,43.50
2018-03-27T08:03:17.341Z,41.00
2018-03-27T08:04:17.308Z,45.90
2018-03-27T08:05:17.319Z,42.00
2018-03-27T08:06:17.224Z,41.00
2018-03-27T08:07:17.193Z,41.60
2018-03-27T08:08:17.162Z,41.30
2018-03-27T08:09:17.107Z,42.10
2018-03-27T08:10:17.087Z,46.40
2018-03-27T08:11:17.047Z,43.40
2018-03-27T08:12:17.013Z,42.90
2018-03-27T08:13:16.968Z,43.50
2018-03-27T08:14:16.913Z,42.70
2018-03-27T08:15:16.856Z,39.80
2018-03-27T08:16:16.863Z,45.80
2018-03-27T08:17:16.792Z,40.50
2018-03-27T08:18:16.748Z,39.50
2018-03-27T08:19:16.792Z,40.60
2018-03-27T08:20:16.668Z,39.40
2018-03-27T08:21:16.638Z,39.70
2018-03-27T08:22:16.601Z,39.60
2018-03-27T08:23:16.569Z,42.40
2018-03-27T08:24:16.645Z,40.00
2018-03-27T08:25:16.464Z,40.00
2018-03-27T08:26:16.468Z,41.70
2018-03-27T08:27:16.438Z,39.90
2018-03-27T08:28:16.339Z,39.70
2018-03-27T08:29:16.345Z,41.10
2018-03-27T08:30:16.308Z,40.70
2018-03-27T08:31:18.083Z,41.60
2018-03-27T08:32:16.202Z,39.40
2018-03-27T08:33:16.159Z,41.70
2018-03-27T08:34:16.106Z,36.00
2018-03-27T08:35:16.171Z,37.80
2018-03-27T08:36:16.086Z,38.30
2018-03-27T08:37:16.035Z,38.30
2018-03-27T08:38:15.966Z,38.30
2018-03-27T08:39:15.961Z,36.70
2018-03-27T08:40:15.890Z,37.10
2018-03-27T08:41:15.876Z,36.50
2018-03-27T08:42:15.827Z,36.30
2018-03-27T08:43:15.764Z,34.70
2018-03-27T08:44:15.726Z,35.60
2018-03-27T08:45:15.734Z,35.10
2018-03-27T08:46:15.665Z,36.50
2018-03-27T08:47:15.645Z,33.10
2018-03-27T08:48:15.651Z,32.70
2018-03-27T08:49:15.547Z,32.50
2018-03-27T08:50:15.520Z,33.20
2018-03-27T08:51:15.464Z,32.30
2018-03-27T08:52:15.431Z,33.20
2018-03-27T08:53:15.388Z,33.30
2018-03-27T08:54:15.382Z,32.60
2018-03-27T08:55:15.346Z,32.50
2018-03-27T08:56:15.319Z,32.40
2018-03-27T08:57:15.262Z,33.00
2018-03-27T08:58:15.299Z,32.60
2018-03-27T08:59:15.170Z,33.80
2018-03-27T09:00:15.167Z,33.20
2018-03-27T09:01:15.125Z,34.00
2018-03-27T09:02:15.097Z,33.60
2018-03-27T09:03:15.034Z,34.10
2018-03-27T09:04:15.011Z,34.40
2018-03-27T09:05:15.078Z,32.80
2018-03-27T09:06:15.000Z,34.50
2018-03-27T09:07:14.902Z,33.30
2018-03-27T09:08:14.927Z,33.40
2018-03-27T09:09:14.845Z,34.20
2018-03-27T09:10:14.818Z,33.70
2018-03-27T09:11:14.768Z,33.90
2018-03-27T09:12:14.734Z,32.40
2018-03-27T09:13:14.720Z,33.40
2018-03-27T09:14:14.672Z,33.50
2018-03-27T09:15:14.659Z,33.80
2018-03-27T09:16:14.633Z,33.20
2018-03-27T09:17:14.589Z,32.20
2018-03-27T09:18:14.523Z,32.10
2018-03-27T09:19:14.528Z,31.70
2018-03-27T09:20:14.460Z,33.10
2018-03-27T09:21:14.429Z,32.70
2018-03-27T09:22:14.417Z,33.40
2018-03-27T09:23:14.357Z,31.90
2018-03-27T09:24:14.347Z,31.00
2018-03-27T09:25:14.334Z,31.00
2018-03-27T09:26:14.257Z,29.80
2018-03-27T09:27:14.268Z,30.30
2018-03-27T09:28:14.297Z,29.90
2018-03-27T09:29:14.180Z,31.00
2018-03-27T09:30:14.174Z,29.10
2018-03-27T09:31:14.114Z,30.70
2018-03-27T09:32:14.091Z,31.30
2018-03-27T09:33:14.064Z,30.10
2018-03-27T09:34:14.035Z,29.70
2018-03-27T09:35:13.996Z,29.50
2018-03-27T09:36:13.956Z,29.10
2018-03-27T09:37:13.931Z,27.70
2018-03-27T09:38:13.911Z,27.00
2018-03-27T09:39:13.887Z,29.10
2018-03-27T09:40:13.874Z,27.90
2018-03-27T09:41:13.826Z,29.10
2018-03-27T09:42:13.797Z,28.00
2018-03-27T09:43:13.743Z,29.10
2018-03-27T09:44:13.784Z,28.60
2018-03-27T09:45:13.674Z,29.70
2018-03-27T09:46:13.670Z,29.40
2018-03-27T09:47:13.623Z,28.70
2018-03-27T09:48:13.611Z,28.90
2018-03-27T09:49:13.610Z,28.30
2018-03-27T09:50:13.538Z,29.20
2018-03-27T09:51:13.508Z,28.00
2018-03-27T09:52:13.531Z,27.70
2018-03-27T09:53:13.435Z,28.40
2018-03-27T09:54:13.426Z,27.70
2018-03-27T09:55:13.376Z,28.90
2018-03-27T09:56:13.345Z,27.90
2018-03-27T09:57:13.305Z,28.10
2018-03-27T09:58:13.274Z,27.80
2018-03-27T09:59:13.248Z,27.90
2018-03-27T10:00:13.214Z,27.60
2018-03-27T10:01:13.196Z,29.00
2018-03-27T10:02:13.143Z,29.00
2018-03-27T10:03:13.180Z,27.90
2018-03-27T10:04:13.129Z,28.50
2018-03-27T10:05:13.058Z,27.10
2018-03-27T10:06:13.015Z,27.60
2018-03-27T10:07:12.993Z,28.40
2018-03-27T10:08:12.963Z,27.40
2018-03-27T10:09:12.923Z,27.20
2018-03-27T10:10:12.920Z,26.80
2018-03-27T10:11:12.887Z,26.60
2018-03-27T10:12:12.846Z,26.30
2018-03-27T10:13:12.797Z,26.30
2018-03-27T10:14:12.777Z,24.70
2018-03-27T10:15:12.744Z,24.30
2018-03-27T10:16:12.721Z,22.80
2018-03-27T10:17:12.668Z,23.10
2018-03-27T10:18:12.678Z,23.80
2018-03-27T10:19:12.623Z,23.50
2018-03-27T10:20:12.614Z,21.40
2018-03-27T10:21:12.565Z,22.70
2018-03-27T10:22:12.556Z,21.90
2018-03-27T10:23:12.515Z,22.40
2018-03-27T10:24:12.467Z,23.10
2018-03-27T10:25:12.463Z,22.70
2018-03-27T10:26:12.406Z,21.90
2018-03-27T10:27:12.371Z,22.50
2018-03-27T10:28:12.334Z,21.60
2018-03-27T10:29:12.334Z,18.30
2018-03-27T10:30:12.285Z,18.70
2018-03-27T10:31:12.274Z,19.90
2018-03-27T10:32:12.214Z,21.10
2018-03-27T10:33:12.190Z,21.70
2018-03-27T10:34:12.181Z,21.30
2018-03-27T10:35:12.136Z,21.30
2018-03-27T10:36:12.124Z,22.00
2018-03-27T10:37:12.634Z,20.80
2018-03-27T10:38:12.049Z,20.70
2018-03-27T10:39:12.050Z,20.30
2018-03-27T10:40:11.972Z,20.40
2018-03-27T10:41:11.950Z,19.90
2018-03-27T10:42:11.916Z,19.80
2018-03-27T10:43:11.884Z,19.50
2018-03-27T10:44:11.854Z,21.20
2018-03-27T10:45:11.829Z,21.60
2018-03-27T10:46:11.798Z,22.00
2018-03-27T10:47:11.776Z,21.20
2018-03-27T10:48:11.726Z,20.40
2018-03-27T10:49:11.689Z,21.00
2018-03-27T10:50:11.822Z,22.00
2018-03-27T10:51:11.634Z,24.70
2018-03-27T10:52:11.675Z,25.00
2018-03-27T10:53:11.565Z,24.50
2018-03-27T10:54:11.545Z,25.40
2018-03-27T10:55:11.518Z,24.30
2018-03-27T10:56:11.488Z,23.70
2018-03-27T10:57:11.445Z,25.10
2018-03-27T10:58:11.432Z,24.70
2018-03-27T10:59:11.443Z,24.00
2018-03-27T11:00:11.362Z,24.50
2018-03-27T11:01:11.348Z,24.80
2018-03-27T11:02:11.316Z,26.10
2018-03-27T11:03:11.282Z,25.00
2018-03-27T11:04:11.240Z,26.90
2018-03-27T11:05:11.213Z,26.70
2018-03-27T11:06:11.173Z,25.70
2018-03-27T11:07:11.140Z,26.30
2018-03-27T11:08:11.106Z,27.10
2018-03-27T11:09:11.076Z,25.90
2018-03-27T11:10:11.040Z,26.20
2018-03-27T11:11:11.023Z,26.90
2018-03-27T11:12:11.009Z,27.10
2018-03-27T11:13:10.942Z,27.70
2018-03-27T11:14:10.898Z,26.80
2018-03-27T11:15:10.875Z,26.20
2018-03-27T11:16:10.852Z,26.20
2018-03-27T11:17:10.797Z,26.10
2018-03-27T11:18:10.784Z,27.20
2018-03-27T11:19:10.737Z,25.50
2018-03-27T11:20:10.701Z,26.30
2018-03-27T11:21:10.677Z,26.90
2018-03-27T11:22:10.630Z,26.70
2018-03-27T11:23:10.602Z,26.30
2018-03-27T11:24:10.561Z,26.60
2018-03-27T11:25:10.531Z,26.40
2018-03-27T11:26:10.494Z,25.20
2018-03-27T11:27:10.498Z,24.90
2018-03-27T11:28:10.432Z,26.80
2018-03-27T11:29:10.457Z,25.90
2018-03-27T11:30:10.354Z,25.60
2018-03-27T11:31:10.323Z,25.40
2018-03-27T11:32:10.292Z,25.00
2018-03-27T11:33:10.260Z,25.50
2018-03-27T11:34:10.209Z,26.60
2018-03-27T11:35:10.300Z,26.40
2018-03-27T11:36:10.192Z,25.60
2018-03-27T11:37:10.158Z,25.70
2018-03-27T11:38:10.086Z,24.90
2018-03-27T11:39:10.066Z,24.50
2018-03-27T11:40:10.025Z,24.90
2018-03-27T11:41:10.034Z,24.70
2018-03-27T11:42:09.972Z,25.50
2018-03-27T11:43:09.919Z,26.80
2018-03-27T11:44:09.892Z,26.00
2018-03-27T11:45:09.843Z,25.00
2018-03-27T11:46:09.840Z,24.30
2018-03-27T11:47:09.804Z,26.00
2018-03-27T11:48:09.750Z,24.70
2018-03-27T11:49:09.708Z,25.70
2018-03-27T11:50:09.707Z,25.60
2018-03-27T11:51:09.683Z,24.60
2018-03-27T11:52:09.619Z,23.50
2018-03-27T11:53:09.577Z,23.90
2018-03-27T11:54:09.576Z,22.90
2018-03-27T11:55:09.509Z,22.50
2018-03-27T11:56:09.484Z,23.50
2018-03-27T11:57:09.454Z,24.40
2018-03-27T11:58:09.419Z,24.50
2018-03-27T11:59:09.376Z,24.00
2018-03-27T12:00:09.332Z,24.60
2018-03-27T12:01:09.382Z,24.00
2018-03-27T12:02:09.299Z,23.50
2018-03-27T12:03:09.228Z,21.70
2018-03-27T12:04:09.188Z,23.70
2018-03-27T12:05:09.183Z,22.40
2018-03-27T12:06:09.135Z,23.20
2018-03-27T12:07:09.109Z,23.80
2018-03-27T12:08:09.052Z,24.70
2018-03-27T12:09:09.032Z,22.80
2018-03-27T12:10:09.570Z,22.50
2018-03-27T12:11:08.938Z,23.80
2018-03-27T12:12:08.913Z,22.90
2018-03-27T12:13:08.863Z,22.40
2018-03-27T12:14:08.833Z,23.00
2018-03-27T12:15:08.823Z,21.80
2018-03-27T12:16:08.753Z,23.30
2018-03-27T12:17:08.729Z,22.60
2018-03-27T12:18:08.740Z,22.90
2018-03-27T12:19:08.728Z,22.60
2018-03-27T12:20:08.634Z,23.20
2018-03-27T12:21:08.572Z,25.00
2018-03-27T12:22:08.551Z,23.90
2018-03-27T12:23:08.511Z,24.50
2018-03-27T12:24:08.531Z,23.80
2018-03-27T12:25:08.424Z,21.50
2018-03-27T12:26:08.395Z,21.90
2018-03-27T12:27:08.352Z,22.30
2018-03-27T12:28:08.360Z,21.30
2018-03-27T12:29:08.291Z,29.90
2018-03-27T12:30:08.241Z,23.50
2018-03-27T12:31:08.211Z,27.50
2018-03-27T12:32:08.190Z,23.30
2018-03-27T12:33:08.141Z,19.90
2018-03-27T12:34:08.131Z,19.40
2018-03-27T12:35:08.069Z,20.80
2018-03-27T12:36:08.043Z,21.00
2018-03-27T12:37:08.029Z,22.10
2018-03-27T12:38:07.994Z,21.70
2018-03-27T12:39:07.966Z,21.30
2018-03-27T12:40:07.912Z,20.10
2018-03-27T12:41:07.879Z,21.60
2018-03-27T12:42:07.844Z,19.70
2018-03-27T12:43:07.819Z,20.50
2018-03-27T12:44:07.820Z,20.80
2018-03-27T12:45:07.795Z,22.90
2018-03-27T12:46:07.709Z,21.00
2018-03-27T12:47:07.684Z,22.00
2018-03-27T12:48:07.667Z,21.40
2018-03-27T12:49:07.632Z,21.30
2018-03-27T12:50:07.580Z,23.10
2018-03-27T12:51:07.556Z,22.50
2018-03-27T12:52:07.534Z,22.30
2018-03-27T12:53:07.514Z,21.30
2018-03-27T12:54:07.459Z,21.10
2018-03-27T12:55:07.445Z,21.00
2018-03-27T12:56:07.436Z,21.20
2018-03-27T12:57:07.379Z,21.70
2018-03-27T12:58:07.340Z,21.40
2018-03-27T12:59:07.363Z,21.30
2018-03-27T13:00:07.267Z,21.70
2018-03-27T13:01:07.227Z,22.30
2018-03-27T13:02:07.214Z,22.90
2018-03-27T13:03:07.179Z,21.60
2018-03-27T13:04:07.116Z,22.40
2018-03-27T13:05:08.140Z,22.40
2018-03-27T13:06:07.086Z,23.60
2018-03-27T13:07:07.024Z,22.30
2018-03-27T13:08:07.017Z,23.20
2018-03-27T13:09:06.955Z,23.70
2018-03-27T13:10:06.952Z,23.70
2018-03-27T13:11:06.919Z,24.00
2018-03-27T13:12:06.851Z,24.50
2018-03-27T13:13:06.841Z,23.40
2018-03-27T13:14:06.782Z,24.10
2018-03-27T13:15:06.762Z,23.00
2018-03-27T13:16:06.716Z,23.90
2018-03-27T13:17:06.705Z,23.30
2018-03-27T13:18:06.704Z,24.10
2018-03-27T13:19:06.665Z,24.40
2018-03-27T13:20:06.655Z,25.00
2018-03-27T13:21:06.574Z,23.40
2018-03-27T13:22:06.556Z,21.20
2018-03-27T13:23:06.457Z,22.60
2018-03-27T13:24:06.428Z,23.00
2018-03-27T13:25:06.419Z,23.40
2018-03-27T13:26:06.367Z,23.90
2018-03-27T13:27:06.333Z,20.80
2018-03-27T13:28:06.291Z,21.00
2018-03-27T13:29:06.272Z,20.50
2018-03-27T13:30:06.244Z,21.00
2018-03-27T13:31:06.229Z,22.40
2018-03-27T13:32:06.192Z,21.70
2018-03-27T13:33:06.127Z,22.60
2018-03-27T13:34:06.102Z,22.20
2018-03-27T13:35:06.070Z,22.00
2018-03-27T13:36:06.075Z,21.40
2018-03-27T13:37:06.007Z,21.80
2018-03-27T13:38:06.004Z,21.60
2018-03-27T13:39:05.960Z,22.00
2018-03-27T13:40:05.898Z,21.80
2018-03-27T13:41:05.888Z,21.60
2018-03-27T13:42:05.886Z,22.10
2018-03-27T13:43:05.807Z,21.20
2018-03-27T13:44:05.778Z,21.40
2018-03-27T13:45:05.748Z,21.20
2018-03-27T13:46:05.719Z,21.30
2018-03-27T13:47:05.704Z,21.40
2018-03-27T13:48:05.654Z,21.20
2018-03-27T13:49:05.646Z,21.70
2018-03-27T13:50:05.588Z,21.30
2018-03-27T13:51:05.562Z,22.20
2018-03-27T13:52:05.518Z,22.70
2018-03-27T13:53:05.482Z,21.60
2018-03-27T13:54:05.459Z,21.90
2018-03-27T13:55:05.429Z,20.80
2018-03-27T13:56:05.386Z,20.90
2018-03-27T13:57:05.347Z,21.30
2018-03-27T13:58:05.326Z,20.60
2018-03-27T13:59:05.313Z,21.10
2018-03-27T14:00:05.263Z,20.50
2018-03-27T14:01:05.224Z,21.80
2018-03-27T14:02:05.177Z,22.00
2018-03-27T14:03:05.180Z,21.80
2018-03-27T14:04:05.130Z,21.00
2018-03-27T14:05:05.161Z,21.40
2018-03-27T14:06:05.065Z,21.70
2018-03-27T14:07:05.037Z,20.80
2018-03-27T14:08:04.993Z,20.50
2018-03-27T14:09:04.960Z,21.20
2018-03-27T14:10:04.928Z,21.00
2018-03-27T14:11:04.974Z,20.20
2018-03-27T14:12:04.867Z,21.60
2018-03-27T14:13:04.857Z,20.20
2018-03-27T14:14:04.797Z,21.10
2018-03-27T14:15:04.813Z,21.50
2018-03-27T14:16:04.714Z,20.70
2018-03-27T14:17:04.692Z,20.30
2018-03-27T14:18:04.671Z,21.20
2018-03-27T14:19:04.642Z,20.50
2018-03-27T14:20:04.584Z,21.70